createdAt,value
2022-08-05T00:01:35.459Z,101488.13
2022-08-05T00:04:05.214Z,101460.59
2022-08-05T00:06:35.887Z,101429.44
2022-08-05T00:09:04.007Z,101471.38
2022-08-05T00:11:35.182Z,101486.28
2022-08-05T00:14:17.019Z,101447.53
2022-08-05T00:16:52.497Z,101468.59
2022-08-05T00:19:25.059Z,101464.06
2022-08-05T00:22:00.822Z,101483.19
2022-08-05T00:24:31.218Z,101494.16
2022-08-05T00:26:59.039Z,101442.19
2022-08-05T00:29:26.162Z,101502.19
2022-08-05T00:32:13.364Z,101487.78
2022-08-05T00:35:04.446Z,101443.59
2022-08-05T00:37:50.330Z,101480.63
2022-08-05T00:40:27.965Z,101478.19
2022-08-05T00:43:00.473Z,101502.34
2022-08-05T00:45:37.821Z,101484.03
2022-08-05T00:48:07.504Z,101510.75
2022-08-05T00:50:34.650Z,101510.25
2022-08-05T00:53:02.298Z,101457.84
2022-08-05T00:55:41.993Z,101504.69
2022-08-05T00:58:13.901Z,101527.63
2022-08-05T01:00:42.273Z,101482.19
2022-08-05T01:03:10.050Z,101531.31
2022-08-05T01:05:39.467Z,101531.97
2022-08-05T01:08:39.201Z,101539.50
2022-08-05T01:11:02.308Z,101562.44
2022-08-05T01:13:57.332Z,101575.53
2022-08-05T01:16:38.391Z,101552.81
2022-08-05T01:20:02.240Z,101578.06
2022-08-05T01:23:15.218Z,101565.19
2022-08-05T01:26:01.523Z,101559.59
2022-08-05T01:28:36.985Z,101531.53
2022-08-05T01:31:44.544Z,101526.44
2022-08-05T01:34:26.781Z,101479.91
2022-08-05T01:37:03.749Z,101507.56
2022-08-05T01:39:46.274Z,101513.09
2022-08-05T01:42:17.085Z,101540.53
2022-08-05T01:44:45.702Z,101469.44
2022-08-05T01:47:22.126Z,101503.59
2022-08-05T01:50:02.078Z,101467.13
2022-08-05T01:52:32.429Z,101466.69
2022-08-05T01:55:04.476Z,101437.44
2022-08-05T01:58:13.082Z,101458.75
2022-08-05T02:00:21.086Z,101456.91
2022-08-05T02:03:23.978Z,101510.69
2022-08-05T02:05:53.689Z,101511.66
2022-08-05T02:08:30.949Z,101503.28
2022-08-05T02:11:11.964Z,101466.56
2022-08-05T02:13:53.232Z,101477.75
2022-08-05T02:16:41.963Z,101447.22
2022-08-05T02:19:19.458Z,101521.41
2022-08-05T02:22:06.441Z,101450.28
2022-08-05T02:24:38.230Z,101505.69
2022-08-05T02:27:10.139Z,101482.97
2022-08-05T02:29:59.954Z,101508.66
2022-08-05T02:32:30.817Z,101524.38
2022-08-05T02:35:00.550Z,101529.34
2022-08-05T02:37:38.380Z,101481.88
2022-08-05T02:40:06.673Z,101545.94
2022-08-05T02:42:38.205Z,101497.91
2022-08-05T02:45:06.969Z,101525.88
2022-08-05T02:48:07.683Z,101533.19
2022-08-05T02:50:23.260Z,101489.72
2022-08-05T02:52:50.844Z,101531.34
2022-08-05T02:55:17.777Z,101495.81
2022-08-05T02:58:11.015Z,101505.16
2022-08-05T03:00:40.496Z,101556.59
2022-08-05T03:03:16.593Z,101559.78
2022-08-05T03:06:54.785Z,101569.97
2022-08-05T03:08:30.957Z,101538.00
2022-08-05T03:11:53.367Z,101524.63
2022-08-05T03:13:52.069Z,101560.50
2022-08-05T03:16:29.511Z,101563.41
2022-08-05T03:18:58.012Z,101562.28
2022-08-05T03:21:24.490Z,101510.91
2022-08-05T03:23:56.824Z,101565.59
2022-08-05T03:26:31.342Z,101521.16
2022-08-05T03:28:59.499Z,101548.59
2022-08-05T03:31:56.019Z,101519.41
2022-08-05T03:34:13.159Z,101568.66
2022-08-05T03:36:40.720Z,101565.34
2022-08-05T03:39:08.184Z,101556.94
2022-08-05T03:41:45.457Z,101546.44
2022-08-05T03:44:13.524Z,101564.22
2022-08-05T03:46:46.691Z,101522.38
2022-08-05T03:49:13.143Z,101544.50
2022-08-05T03:52:38.088Z,101555.47
2022-08-05T03:55:00.516Z,101571.53
2022-08-05T03:57:46.118Z,101566.53
2022-08-05T04:00:16.699Z,101526.00
2022-08-05T04:02:58.753Z,101566.13
2022-08-05T04:05:33.608Z,101575.34
2022-08-05T04:08:30.106Z,101573.97
2022-08-05T04:10:54.351Z,101572.47
2022-08-05T04:13:21.744Z,101571.75
2022-08-05T04:15:52.793Z,101579.06
2022-08-05T04:18:31.539Z,101505.34
2022-08-05T04:20:58.309Z,101544.56
2022-08-05T04:23:57.362Z,101542.13
2022-08-05T04:26:14.635Z,101563.03
2022-08-05T04:28:50.772Z,101569.13
2022-08-05T04:31:18.201Z,101518.25
2022-08-05T04:34:17.483Z,101549.69
2022-08-05T04:36:49.548Z,101570.47
2022-08-05T04:39:17.970Z,101566.19
2022-08-05T04:41:44.891Z,101561.09
2022-08-05T04:44:12.363Z,101519.56
2022-08-05T04:46:38.833Z,101553.47
2022-08-05T04:49:07.555Z,101555.88
2022-08-05T04:51:41.243Z,101565.97
2022-08-05T04:54:09.183Z,101569.19
2022-08-05T04:56:37.374Z,101516.72
2022-08-05T04:59:21.387Z,101555.41
2022-08-05T05:02:06.927Z,101571.47
2022-08-05T05:04:38.513Z,101563.31
2022-08-05T05:07:15.924Z,101567.94
2022-08-05T05:09:43.848Z,101563.22
2022-08-05T05:12:11.515Z,101579.09
2022-08-05T05:14:38.233Z,101573.81
2022-08-05T05:17:19.897Z,101547.75
2022-08-05T05:19:50.254Z,101536.34
2022-08-05T05:22:24.258Z,101533.75
2022-08-05T05:24:57.713Z,101531.31
2022-08-05T05:27:44.195Z,101581.66
2022-08-05T05:30:15.548Z,101574.53
2022-08-05T05:32:55.930Z,101584.38
2022-08-05T05:35:22.836Z,101573.34
2022-08-05T05:38:01.437Z,101580.94
2022-08-05T05:40:30.031Z,101579.00
2022-08-05T05:42:59.307Z,101556.56
2022-08-05T05:45:26.377Z,101536.69
2022-08-05T05:48:07.047Z,101592.50
2022-08-05T05:50:42.568Z,101588.16
2022-08-05T05:53:21.637Z,101545.41
2022-08-05T05:55:52.141Z,101603.25
2022-08-05T05:58:31.691Z,101605.00
2022-08-05T06:01:12.139Z,101611.63
2022-08-05T06:04:01.415Z,101592.03
2022-08-05T06:06:28.033Z,101610.88
2022-08-05T06:08:58.166Z,101610.31
2022-08-05T06:11:24.754Z,101628.09
2022-08-05T06:13:53.938Z,101587.66
2022-08-05T06:16:28.240Z,101605.84
2022-08-05T06:19:00.807Z,101622.47
2022-08-05T06:21:37.641Z,101626.88
2022-08-05T06:24:07.743Z,101614.13
2022-08-05T06:26:38.072Z,101634.09
2022-08-05T06:29:23.773Z,101607.97
2022-08-05T06:31:51.061Z,101579.72
2022-08-05T06:34:20.154Z,101575.47
2022-08-05T06:36:58.007Z,101619.09
2022-08-05T06:39:27.323Z,101624.13
2022-08-05T06:41:56.303Z,101571.81
2022-08-05T06:44:25.206Z,101585.22
2022-08-05T06:46:52.660Z,101615.97
2022-08-05T06:50:00.686Z,101621.69
2022-08-05T06:52:07.518Z,101588.59
2022-08-05T06:54:53.993Z,101620.34
2022-08-05T06:57:57.143Z,101632.50
2022-08-05T07:00:07.881Z,101574.28
2022-08-05T07:02:43.451Z,101627.13
2022-08-05T07:05:14.258Z,101633.56
2022-08-05T07:07:45.358Z,101633.81
2022-08-05T07:10:14.984Z,101635.53
2022-08-05T07:12:43.278Z,101641.38
2022-08-05T07:15:34.062Z,101595.91
2022-08-05T07:18:08.924Z,101633.84
2022-08-05T07:20:37.168Z,101646.81
2022-08-05T07:23:06.532Z,101651.88
2022-08-05T07:25:55.205Z,101655.63
2022-08-05T07:28:19.544Z,101649.84
2022-08-05T07:30:50.388Z,101658.75
2022-08-05T07:33:19.637Z,101645.66
2022-08-05T07:36:19.993Z,101652.94
2022-08-05T07:38:46.975Z,101684.84
2022-08-05T07:42:14.418Z,101683.31
2022-08-05T07:44:06.442Z,101693.41
2022-08-05T07:46:41.097Z,101685.97
2022-08-05T07:49:14.792Z,101700.50
2022-08-05T07:51:54.674Z,101695.06
2022-08-05T07:54:26.483Z,101697.69
2022-08-05T07:57:13.812Z,101691.06
2022-08-05T07:59:43.427Z,101705.59
2022-08-05T08:02:16.576Z,101707.88
2022-08-05T08:04:48.327Z,101715.75
2022-08-05T08:07:17.876Z,101676.84
2022-08-05T08:09:45.766Z,101681.69
2022-08-05T08:12:48.412Z,101714.97
2022-08-05T08:15:02.135Z,101678.50
2022-08-05T08:17:29.503Z,101721.44
2022-08-05T08:20:23.031Z,101726.84
2022-08-05T08:22:43.392Z,101722.06
2022-08-05T08:25:15.669Z,101719.25
2022-08-05T08:27:47.956Z,101734.25
2022-08-05T08:30:27.602Z,101729.88
2022-08-05T08:33:02.486Z,101740.94
2022-08-05T08:35:35.086Z,101687.91
2022-08-05T08:38:11.805Z,101692.13
2022-08-05T08:40:45.691Z,101694.78
2022-08-05T08:45:04.465Z,101702.94
2022-08-05T08:46:06.178Z,101745.16
2022-08-05T08:49:00.965Z,101744.84
2022-08-05T08:52:03.455Z,101743.69
2022-08-05T08:54:13.771Z,101747.31
2022-08-05T08:56:47.378Z,101757.44
2022-08-05T08:59:19.378Z,101758.97
2022-08-05T09:01:56.973Z,101714.47
2022-08-05T09:04:30.630Z,101756.47
2022-08-05T09:06:57.609Z,101774.25
2022-08-05T09:09:24.969Z,101767.03
2022-08-05T09:11:54.166Z,101763.47
2022-08-05T09:14:57.231Z,101775.16
2022-08-05T09:17:40.099Z,101790.91
2022-08-05T09:20:02.530Z,101786.63
2022-08-05T09:23:23.742Z,101786.84
2022-08-05T09:26:10.578Z,101750.25
2022-08-05T09:28:48.058Z,101796.44
2022-08-05T09:31:22.174Z,101777.31
2022-08-05T09:34:09.755Z,101801.28
2022-08-05T09:36:56.390Z,101791.84
2022-08-05T09:39:41.228Z,101800.22
2022-08-05T09:42:23.392Z,101777.16
2022-08-05T09:44:56.201Z,101753.09
2022-08-05T09:47:25.671Z,101789.81
2022-08-05T09:50:01.996Z,101806.72
2022-08-05T09:52:35.001Z,101811.25
2022-08-05T09:55:55.560Z,101816.03
2022-08-05T09:57:49.265Z,101811.78
2022-08-05T10:00:22.679Z,101764.00
2022-08-05T10:02:52.695Z,101827.25
2022-08-05T10:05:32.934Z,101781.13
2022-08-05T10:08:35.406Z,101816.56
2022-08-05T10:10:54.651Z,101814.16
2022-08-05T10:13:31.647Z,101838.16
2022-08-05T10:16:30.657Z,101836.63
2022-08-05T10:18:59.162Z,101785.34
2022-08-05T10:21:27.218Z,101826.28
2022-08-05T10:24:06.274Z,101806.06
2022-08-05T10:26:37.271Z,101827.25
2022-08-05T10:29:20.343Z,101841.91
2022-08-05T10:32:53.123Z,101847.50
2022-08-05T10:34:40.721Z,101844.06
2022-08-05T10:37:07.924Z,101861.03
2022-08-05T10:39:59.525Z,101849.72
2022-08-05T10:42:33.574Z,101802.28
2022-08-05T10:45:02.005Z,101865.59
2022-08-05T10:48:30.341Z,101855.91
2022-08-05T10:50:57.961Z,101871.13
2022-08-05T10:53:42.606Z,101876.41
2022-08-05T10:56:25.057Z,101883.66
2022-08-05T10:58:55.510Z,101825.03
2022-08-05T11:02:03.735Z,101844.00
2022-08-05T11:04:27.864Z,101886.28
2022-08-05T11:06:57.220Z,101888.53
2022-08-05T11:09:39.327Z,101854.63
2022-08-05T11:12:24.333Z,101864.09
2022-08-05T11:15:19.596Z,101895.25
2022-08-05T11:17:57.369Z,101897.16
2022-08-05T11:20:32.831Z,101898.78
2022-08-05T11:23:02.229Z,101896.06
2022-08-05T11:26:04.109Z,101901.91
2022-08-05T11:28:24.190Z,101906.22
2022-08-05T11:30:55.991Z,101911.03
2022-08-05T11:33:45.986Z,101908.91
2022-08-05T11:36:33.909Z,101906.97
2022-08-05T11:39:01.668Z,101896.31
2022-08-05T11:41:58.072Z,101877.69
2022-08-05T11:44:40.407Z,101913.69
2022-08-05T11:47:13.783Z,101864.88
2022-08-05T11:49:42.975Z,101881.88
2022-08-05T11:52:11.798Z,101921.69
2022-08-05T11:54:40.558Z,101932.91
2022-08-05T11:57:25.983Z,101892.34
2022-08-05T11:59:55.553Z,101925.91
2022-08-05T12:02:30.616Z,101883.25
2022-08-05T12:05:00.281Z,101930.25
2022-08-05T12:08:08.296Z,101937.47
2022-08-05T12:10:38.552Z,101887.47
2022-08-05T12:13:15.865Z,101889.88
2022-08-05T12:15:49.752Z,101900.63
2022-08-05T12:18:20.607Z,101910.00
2022-08-05T12:20:50.742Z,101902.47
2022-08-05T12:23:17.202Z,101954.09
2022-08-05T12:25:56.709Z,101959.84
2022-08-05T12:28:35.239Z,101962.78
2022-08-05T12:31:04.361Z,101946.88
2022-08-05T12:33:38.525Z,101963.03
2022-08-05T12:36:07.952Z,101962.16
2022-08-05T12:38:37.824Z,101953.72
2022-08-05T12:41:13.176Z,101967.28
2022-08-05T12:43:57.261Z,101936.03
2022-08-05T12:46:31.252Z,101975.06
2022-08-05T12:49:13.535Z,101971.88
2022-08-05T12:52:12.569Z,101968.03
2022-08-05T12:54:35.446Z,101938.13
2022-08-05T12:57:09.750Z,101980.88
2022-08-05T13:01:57.597Z,101991.84
2022-08-05T13:02:39.888Z,101997.16
2022-08-05T13:05:07.683Z,101988.69
2022-08-05T13:10:21.499Z,101974.81
2022-08-05T13:12:51.247Z,101993.97
2022-08-05T13:15:35.998Z,101992.63
2022-08-05T13:18:19.724Z,101995.09
2022-08-05T13:20:49.187Z,102006.03
2022-08-05T13:23:18.090Z,101953.13
2022-08-05T13:25:52.623Z,101962.53
2022-08-05T13:28:27.061Z,102009.88
2022-08-05T13:30:53.725Z,102013.66
2022-08-05T13:34:22.158Z,101981.19
2022-08-05T13:36:09.387Z,102017.41
2022-08-05T13:38:42.324Z,102032.25
2022-08-05T13:41:09.359Z,101985.53
2022-08-05T13:43:45.197Z,102028.88
2022-08-05T13:46:50.701Z,102046.16
2022-08-05T13:49:10.468Z,102048.16
2022-08-05T13:51:41.644Z,102030.06
2022-08-05T13:54:15.221Z,102050.06
2022-08-05T13:56:45.199Z,102046.00
2022-08-05T13:59:23.780Z,102043.44
2022-08-05T14:01:58.146Z,102012.97
2022-08-05T14:04:33.768Z,102043.25
2022-08-05T14:07:25.027Z,102035.00
2022-08-05T14:09:46.766Z,102062.94
2022-08-05T14:12:17.433Z,102051.63
2022-08-05T14:14:45.496Z,102066.56
2022-08-05T14:17:28.247Z,102065.47
2022-08-05T14:20:00.983Z,102064.72
2022-08-05T14:22:34.552Z,102063.19
2022-08-05T14:25:01.951Z,102074.53
2022-08-05T14:27:32.707Z,102074.69
2022-08-05T14:29:59.205Z,102050.63
2022-08-05T14:32:27.733Z,102042.00
2022-08-05T14:34:54.790Z,102066.91
2022-08-05T14:37:47.321Z,102074.63
2022-08-05T14:40:14.263Z,102077.34
2022-08-05T14:42:44.094Z,102077.44
2022-08-05T14:45:10.738Z,102061.84
2022-08-05T14:48:03.603Z,102083.25
2022-08-05T14:50:25.177Z,102036.91
2022-08-05T14:52:57.851Z,102085.56
2022-08-05T14:55:28.644Z,102095.47
2022-08-05T14:58:11.811Z,102094.84
2022-08-05T15:00:58.250Z,102100.34
2022-08-05T15:03:33.799Z,102090.13
2022-08-05T15:06:07.402Z,102041.28
2022-08-05T15:09:01.484Z,102089.44
2022-08-05T15:11:52.942Z,102061.94
2022-08-05T15:14:33.622Z,102097.88
2022-08-05T15:16:59.797Z,102090.16
2022-08-05T15:19:26.319Z,102102.25
2022-08-05T15:21:52.742Z,102093.22
2022-08-05T15:24:19.182Z,102117.09
2022-08-05T15:26:46.530Z,102066.94
2022-08-05T15:29:15.108Z,102122.06
2022-08-05T15:31:41.741Z,102112.88
2022-08-05T15:34:31.460Z,102115.78
2022-08-05T15:36:54.681Z,102059.13
2022-08-05T15:41:00.148Z,102116.06
2022-08-05T15:42:50.388Z,102124.38
2022-08-05T15:44:54.115Z,102074.72
2022-08-05T15:47:22.095Z,102120.38
2022-08-05T15:49:56.770Z,102079.34
2022-08-05T15:52:29.482Z,102084.97
2022-08-05T15:55:16.017Z,102111.41
2022-08-05T15:57:43.281Z,102123.41
2022-08-05T16:00:12.263Z,102091.28
2022-08-05T16:02:43.423Z,102099.69
2022-08-05T16:05:11.139Z,102112.00
2022-08-05T16:07:37.841Z,102131.84
2022-08-05T16:10:05.006Z,102129.94
2022-08-05T16:12:37.943Z,102142.78
2022-08-05T16:15:04.842Z,102138.97
2022-08-05T16:17:31.451Z,102126.31
2022-08-05T16:20:05.041Z,102149.25
2022-08-05T16:22:38.327Z,102158.50
2022-08-05T16:25:08.009Z,102144.75
2022-08-05T16:27:59.988Z,102141.66
2022-08-05T16:30:26.160Z,102154.91
2022-08-05T16:32:53.225Z,102163.94
2022-08-05T16:35:27.674Z,102141.78
2022-08-05T16:38:02.635Z,102167.75
2022-08-05T16:40:41.200Z,102166.25
2022-08-05T16:43:07.708Z,102129.38
2022-08-05T16:46:04.888Z,102182.00
2022-08-05T16:48:25.332Z,102178.88
2022-08-05T16:50:53.042Z,102176.31
2022-08-05T16:53:22.481Z,102130.75
2022-08-05T16:55:49.829Z,102190.47
2022-08-05T16:58:19.817Z,102186.28
2022-08-05T17:00:46.991Z,102153.19
2022-08-05T17:03:20.109Z,102189.72
2022-08-05T17:05:51.727Z,102204.09
2022-08-05T17:08:36.385Z,102156.16
2022-08-05T17:11:08.215Z,102191.59
2022-08-05T17:13:37.657Z,102203.47
2022-08-05T17:16:28.143Z,102201.66
2022-08-05T17:18:54.875Z,102207.94
2022-08-05T17:21:21.368Z,102175.78
2022-08-05T17:24:04.370Z,102212.28
2022-08-05T17:26:37.215Z,102204.72
2022-08-05T17:29:09.946Z,102219.63
2022-08-05T17:31:41.297Z,102218.97
2022-08-05T17:34:30.274Z,102210.53
2022-08-05T17:36:59.998Z,102218.28
2022-08-05T17:39:34.210Z,102231.31
2022-08-05T17:42:28.612Z,102242.38
2022-08-05T17:44:50.875Z,102237.09
2022-08-05T17:47:22.032Z,102188.88
2022-08-05T17:49:51.633Z,102230.03
2022-08-05T17:52:27.759Z,102236.53
2022-08-05T17:54:54.910Z,102195.91
2022-08-05T17:57:21.950Z,102255.69
2022-08-05T18:00:03.457Z,102241.56
2022-08-05T18:02:32.665Z,102212.47
2022-08-05T18:04:59.342Z,102259.22
2022-08-05T18:07:32.872Z,102253.63
2022-08-05T18:10:10.432Z,102266.03
2022-08-05T18:12:37.217Z,102203.41
2022-08-05T18:15:04.738Z,102242.75
2022-08-05T18:18:00.794Z,102276.84
2022-08-05T18:20:18.051Z,102251.94
2022-08-05T18:22:54.721Z,102249.88
2022-08-05T18:25:23.861Z,102272.38
2022-08-05T18:27:52.377Z,102269.94
2022-08-05T18:30:19.561Z,102278.16
2022-08-05T18:33:00.463Z,102243.50
2022-08-05T18:36:01.254Z,102247.59
2022-08-05T18:38:16.435Z,102233.06
2022-08-05T18:41:56.684Z,102240.50
2022-08-05T18:43:38.285Z,102265.06
2022-08-05T18:46:10.162Z,102285.25
2022-08-05T18:48:41.706Z,102298.00
2022-08-05T18:52:04.847Z,102282.53
2022-08-05T18:53:55.627Z,102250.84
2022-08-05T18:56:25.156Z,102297.66
2022-08-05T18:58:54.739Z,102291.47
2022-08-05T19:01:21.511Z,102280.63
2022-08-05T19:04:12.259Z,102240.34
2022-08-05T19:06:45.427Z,102282.31
2022-08-05T19:09:12.334Z,102247.69
2022-08-05T19:12:00.726Z,102294.34
2022-08-05T19:14:59.450Z,102291.34
2022-08-05T19:17:12.080Z,102305.75
2022-08-05T19:19:46.350Z,102311.13
2022-08-05T19:22:17.348Z,102268.94
2022-08-05T19:24:54.223Z,102312.91
2022-08-05T19:27:22.877Z,102313.47
2022-08-05T19:29:49.629Z,102268.22
2022-08-05T19:32:16.063Z,102318.31
2022-08-05T19:34:54.533Z,102311.41
2022-08-05T19:37:22.113Z,102316.13
2022-08-05T19:39:57.624Z,102334.44
2022-08-05T19:42:36.020Z,102325.91
2022-08-05T19:45:06.023Z,102285.66
2022-08-05T19:47:32.974Z,102337.59
2022-08-05T19:50:00.486Z,102301.81
2022-08-05T19:52:31.172Z,102289.97
2022-08-05T19:55:00.473Z,102301.19
2022-08-05T19:57:47.463Z,102353.50
2022-08-05T20:00:13.813Z,102352.16
2022-08-05T20:02:40.239Z,102304.56
2022-08-05T20:05:09.703Z,102300.25
2022-08-05T20:07:47.795Z,102313.75
2022-08-05T20:10:15.915Z,102364.56
2022-08-05T20:12:47.496Z,102316.09
2022-08-05T20:15:48.011Z,102365.44
2022-08-05T20:18:10.792Z,102379.28
2022-08-05T20:20:55.054Z,102370.41
2022-08-05T20:23:23.178Z,102377.91
2022-08-05T20:25:52.302Z,102360.19
2022-08-05T20:28:19.896Z,102343.69
2022-08-05T20:30:46.410Z,102362.53
2022-08-05T20:33:15.868Z,102344.88
2022-08-05T20:35:45.747Z,102342.34
2022-08-05T20:38:20.051Z,102394.44
2022-08-05T20:40:53.219Z,102391.03
2022-08-05T20:43:57.423Z,102402.84
2022-08-05T20:46:08.536Z,102365.31
2022-08-05T20:48:38.733Z,102409.88
2022-08-05T20:51:08.860Z,102399.13
2022-08-05T20:53:36.885Z,102399.16
2022-08-05T20:56:09.553Z,102337.31
2022-08-05T20:58:36.862Z,102404.38
2022-08-05T21:01:04.091Z,102401.00
2022-08-05T21:03:34.624Z,102417.63
2022-08-05T21:06:01.896Z,102411.75
2022-08-05T21:08:35.822Z,102407.66
2022-08-05T21:11:51.577Z,102371.50
2022-08-05T21:13:59.754Z,102383.34
2022-08-05T21:16:29.949Z,102433.66
2022-08-05T21:19:01.434Z,102390.88
2022-08-05T21:21:39.230Z,102410.03
2022-08-05T21:24:06.750Z,102433.91
2022-08-05T21:26:33.787Z,102428.31
2022-08-05T21:29:03.639Z,102390.56
2022-08-05T21:31:41.340Z,102430.44
2022-08-05T21:34:08.447Z,102424.97
2022-08-05T21:36:37.247Z,102422.50
2022-08-05T21:39:03.844Z,102440.25
2022-08-05T21:41:33.922Z,102445.50
2022-08-05T21:44:04.336Z,102452.44
2022-08-05T21:46:34.538Z,102397.59
2022-08-05T21:49:01.863Z,102450.66
2022-08-05T21:52:22.133Z,102428.81
2022-08-05T21:54:14.800Z,102458.78
2022-08-05T21:56:44.308Z,102408.22
2022-08-05T21:59:24.056Z,102453.53
2022-08-05T22:01:51.966Z,102418.94
2022-08-05T22:04:21.171Z,102465.91
2022-08-05T22:06:52.678Z,102418.69
2022-08-05T22:09:21.133Z,102454.59
2022-08-05T22:11:48.350Z,102464.25
2022-08-05T22:14:35.593Z,102463.75
2022-08-05T22:17:05.324Z,102433.97
2022-08-05T22:20:00.643Z,102471.91
2022-08-05T22:22:28.280Z,102484.28
2022-08-05T22:24:59.026Z,102469.53
2022-08-05T22:27:25.668Z,102487.63
2022-08-05T22:30:14.096Z,102480.00
2022-08-05T22:32:42.327Z,102464.63
2022-08-05T22:35:12.790Z,102395.09
2022-08-05T22:37:58.790Z,102478.94
2022-08-05T22:40:26.513Z,102479.97
2022-08-05T22:42:58.037Z,102500.13
2022-08-05T22:45:24.882Z,102432.63
2022-08-05T22:47:55.327Z,102491.09
2022-08-05T22:50:26.948Z,102442.06
2022-08-05T22:52:55.340Z,102495.81
2022-08-05T22:55:23.337Z,102467.56
2022-08-05T22:57:53.947Z,102510.72
2022-08-05T23:00:23.107Z,102498.25
2022-08-05T23:02:51.367Z,102501.06
2022-08-05T23:05:18.412Z,102459.84
2022-08-05T23:07:48.543Z,102501.13
2022-08-05T23:10:20.230Z,102502.66
2022-08-05T23:12:55.200Z,102459.97
2022-08-05T23:15:29.807Z,102515.69
2022-08-05T23:18:03.625Z,102488.94
2022-08-05T23:20:36.997Z,102518.16
2022-08-05T23:23:05.830Z,102523.72
2022-08-05T23:25:51.408Z,102521.00
2022-08-05T23:28:20.818Z,102474.53
2022-08-05T23:30:53.546Z,102520.31
2022-08-05T23:33:26.100Z,102522.13
2022-08-05T23:36:10.168Z,102514.66
2022-08-05T23:38:37.010Z,102539.25
2022-08-05T23:41:03.434Z,102542.63
2022-08-05T23:44:03.203Z,102533.72
2022-08-05T23:46:21.040Z,102536.53
2022-08-05T23:49:00.305Z,102540.81
2022-08-05T23:51:32.594Z,102529.94
2022-08-05T23:54:00.981Z,102538.91
2022-08-05T23:56:27.820Z,102507.06
2022-08-05T23:58:54.245Z,102494.03
